Wilson Cadiz — 8PSY — position and weather

sailwx.info

Track history (hours):
 
Tides and Currents Weather Stations Pressure Air Temp Water Temp Dewpoint Dewpoint Depression Visibility Wind Speed Wind Dir Waves Ship Positions

Wilson Cadiz

Last reported at 2014-Sep-02 20:31 UTC. Time now 2014-Sep-02 21:19 UTC.
Position N 59°53' E 010°45'.

Length 100 m; draft 6.1 m.

Type: Ship. MMSI: 314216000.

Date/timePositionNaut miles runAvg speedWind from/ knotsBaromVisibWave heightAir tempDewpointWater temp
2014-Sep-02 20:31N 59°53' E 010°45'0 0.0
2014-Sep-02 19:31N 59°53' E 010°45'0 0.0
2014-Sep-02 18:31N 59°53' E 010°45'0 0.0
2014-Sep-02 17:31N 59°53' E 010°45'0 0.0
2014-Sep-02 16:31N 59°53' E 010°45'0 0.0
2014-Sep-02 15:31N 59°53' E 010°45'0 0.0
2014-Sep-02 14:22N 59°53' E 010°45'0 0.0
2014-Sep-02 13:22N 59°53' E 010°45'0 0.0
2014-Sep-02 12:25N 59°53' E 010°45'0 0.0
2014-Sep-02 11:25N 59°53' E 010°45'0 0.0
2014-Sep-02 10:28N 59°53' E 010°45'0 0.0
2014-Sep-02 09:28N 59°53' E 010°45'0 0.0
2014-Sep-02 08:25N 59°53' E 010°45'0 0.0
2014-Sep-02 07:31N 59°53' E 010°45'0 0.0
2014-Sep-02 06:31N 59°53' E 010°45'0 0.0
2014-Sep-02 05:31N 59°53' E 010°45'0 0.0
2014-Sep-02 04:31N 59°53' E 010°45'0 0.0
2014-Sep-02 03:31N 59°53' E 010°45'0 0.0
2014-Sep-02 02:31N 59°53' E 010°45'0 0.0
2014-Sep-02 01:31N 59°53' E 010°45'0 0.0
2014-Sep-02 00:22N 59°53' E 010°45'0 0.0
2014-Sep-01 23:25N 59°53' E 010°45'0 0.0
2014-Sep-01 22:25N 59°53' E 010°45'0 0.0
2014-Sep-01 21:22N 59°53' E 010°45'0 0.0
2014-Sep-01 20:28N 59°53' E 010°45'0 0.0
2014-Sep-01 19:28N 59°53' E 010°45'0 0.0
2014-Sep-01 18:28N 59°53' E 010°45'0 0.0
2014-Sep-01 17:31N 59°53' E 010°45'0 0.0
2014-Sep-01 16:31N 59°53' E 010°45'0 0.0
2014-Sep-01 15:31N 59°53' E 010°45'0 0.0
2014-Sep-01 14:28N 59°53' E 010°45'0 0.0
2014-Sep-01 13:19N 59°53' E 010°45'0 0.0
2014-Sep-01 12:31N 59°53' E 010°45'0 0.0
2014-Sep-01 11:22N 59°53' E 010°45'0 0.0
2014-Sep-01 10:22N 59°53' E 010°45'0 0.0
2014-Sep-01 09:25N 59°53' E 010°45'0 0.0
2014-Sep-01 08:33N 59°53' E 010°45'17 8.1
2014-Sep-01 06:30N 59°37' E 010°38'1010.3
2014-Sep-01 05:33N 59°27' E 010°34'1010.2
2014-Sep-01 04:33N 59°17' E 010°37'1110.7
2014-Sep-01 03:33N 59°07' E 010°41'7 7.4
2014-Sep-01 02:33N 58°59' E 010°41'10 9.6
2014-Sep-01 01:33N 58°53' E 010°28'300 8.3
2014-Aug-30 13:21N 54°40' E 005°34'7 8.7
2014-Aug-30 12:33N 54°34' E 005°28'9 9.0
2014-Aug-30 11:32N 54°26' E 005°20'9 9.1
2014-Aug-30 10:33N 54°18' E 005°12'9 9.0
2014-Aug-30 09:33N 54°11' E 005°04'9 8.8
2014-Aug-30 08:33N 54°03' E 004°57'8 7.9
2014-Aug-30 07:33N 53°55' E 004°56'10 9.5
2014-Aug-30 06:32N 53°45' E 004°56'13 8.8
2014-Aug-30 05:04N 53°33' E 004°48'5 8.6
2014-Aug-30 04:29N 53°29' E 004°45'8 8.2
2014-Aug-30 03:33N 53°22' E 004°40'24 7.9
2014-Aug-30 00:33N 53°01' E 004°22'8 7.6
2014-Aug-29 23:34N 52°54' E 004°16'8 7.5
2014-Aug-29 22:33N 52°48' E 004°09'8 7.7
2014-Aug-29 21:33N 52°42' E 004°01'8 8.2
2014-Aug-29 20:33N 52°36' E 003°52'11 8.8
2014-Aug-29 19:15N 52°27' E 003°39'6710.0
2014-Aug-29 12:33N 51°38' E 002°25'10 9.4
2014-Aug-29 11:30N 51°30' E 002°15'9 8.5
2014-Aug-29 10:24N 51°22' E 002°09'6 7.1
2014-Aug-29 09:33N 51°16' E 002°05'8 8.1
2014-Aug-29 08:33N 51°11' E 001°55'9 8.6
2014-Aug-29 07:33N 51°06' E 001°44'10 9.1
2014-Aug-29 06:30N 50°58' E 001°35'3910.0
2014-Aug-29 02:33N 50°29' E 000°53'1110.6
2014-Aug-29 01:33N 50°26' E 000°37'1110.9
2014-Aug-29 00:33N 50°23' E 000°21'24010.4
2014-Aug-28 01:33N 48°51' W 005°22'48 8.0
2014-Aug-27 19:33N 48°12' W 006°02'9 8.8
2014-Aug-27 18:33N 48°04' W 006°08'  
2014-Aug-25 06:08N 39°03' W 009°50'7 9.5
2014-Aug-25 05:25N 38°56' W 009°50'37 9.4
2014-Aug-25 01:30N 38°20' W 009°43'46 8.8
2014-Aug-24 20:15N 37°35' W 009°31'6 8.8
2014-Aug-24 19:33N 37°29' W 009°29'9 8.8
2014-Aug-24 18:32N 37°20' W 009°26'18 9.1
2014-Aug-24 16:33N 37°03' W 009°21'9 9.0
2014-Aug-24 15:33N 36°54' W 009°19'11 9.3
2014-Aug-24 14:24N 36°46' W 009°10'8 9.4
2014-Aug-24 13:33N 36°43' W 009°00'20 9.6
2014-Aug-24 11:30N 36°37' W 008°37'1910.0
2014-Aug-24 09:33N 36°31' W 008°14'  
Track history (hours):
 
Tides and Currents Weather Stations Pressure Air Temp Water Temp Dewpoint Dewpoint Depression Visibility Wind Speed Wind Dir Waves Ship Positions

Wilson Cadiz

Last reported at 2014-Sep-02 20:31 UTC. Time now 2014-Sep-02 21:19 UTC.
Position N 59°53' E 010°45'.

Length 100 m; draft 6.1 m.

Type: Ship. MMSI: 314216000.

Date/timePositionNaut miles runAvg speedWind from/ knotsBaromVisibWave heightAir tempDewpointWater temp
2014-Sep-02 20:31N 59°53' E 010°45'0 0.0
2014-Sep-02 19:31N 59°53' E 010°45'0 0.0
2014-Sep-02 18:31N 59°53' E 010°45'0 0.0
2014-Sep-02 17:31N 59°53' E 010°45'0 0.0
2014-Sep-02 16:31N 59°53' E 010°45'0 0.0
2014-Sep-02 15:31N 59°53' E 010°45'0 0.0
2014-Sep-02 14:22N 59°53' E 010°45'0 0.0
2014-Sep-02 13:22N 59°53' E 010°45'0 0.0
2014-Sep-02 12:25N 59°53' E 010°45'0 0.0
2014-Sep-02 11:25N 59°53' E 010°45'0 0.0
2014-Sep-02 10:28N 59°53' E 010°45'0 0.0
2014-Sep-02 09:28N 59°53' E 010°45'0 0.0
2014-Sep-02 08:25N 59°53' E 010°45'0 0.0
2014-Sep-02 07:31N 59°53' E 010°45'0 0.0
2014-Sep-02 06:31N 59°53' E 010°45'0 0.0
2014-Sep-02 05:31N 59°53' E 010°45'0 0.0
2014-Sep-02 04:31N 59°53' E 010°45'0 0.0
2014-Sep-02 03:31N 59°53' E 010°45'0 0.0
2014-Sep-02 02:31N 59°53' E 010°45'0 0.0
2014-Sep-02 01:31N 59°53' E 010°45'0 0.0
2014-Sep-02 00:22N 59°53' E 010°45'0 0.0
2014-Sep-01 23:25N 59°53' E 010°45'0 0.0
2014-Sep-01 22:25N 59°53' E 010°45'0 0.0
2014-Sep-01 21:22N 59°53' E 010°45'0 0.0
2014-Sep-01 20:28N 59°53' E 010°45'0 0.0
2014-Sep-01 19:28N 59°53' E 010°45'0 0.0
2014-Sep-01 18:28N 59°53' E 010°45'0 0.0
2014-Sep-01 17:31N 59°53' E 010°45'0 0.0
2014-Sep-01 16:31N 59°53' E 010°45'0 0.0
2014-Sep-01 15:31N 59°53' E 010°45'0 0.0
2014-Sep-01 14:28N 59°53' E 010°45'0 0.0
2014-Sep-01 13:19N 59°53' E 010°45'0 0.0
2014-Sep-01 12:31N 59°53' E 010°45'0 0.0
2014-Sep-01 11:22N 59°53' E 010°45'0 0.0
2014-Sep-01 10:22N 59°53' E 010°45'0 0.0
2014-Sep-01 09:25N 59°53' E 010°45'0 0.0
2014-Sep-01 08:33N 59°53' E 010°45'17 8.1
2014-Sep-01 06:30N 59°37' E 010°38'1010.3
2014-Sep-01 05:33N 59°27' E 010°34'1010.2
2014-Sep-01 04:33N 59°17' E 010°37'1110.7
2014-Sep-01 03:33N 59°07' E 010°41'7 7.4
2014-Sep-01 02:33N 58°59' E 010°41'10 9.6
2014-Sep-01 01:33N 58°53' E 010°28'300 8.3
2014-Aug-30 13:21N 54°40' E 005°34'7 8.7
2014-Aug-30 12:33N 54°34' E 005°28'9 9.0
2014-Aug-30 11:32N 54°26' E 005°20'9 9.1
2014-Aug-30 10:33N 54°18' E 005°12'9 9.0
2014-Aug-30 09:33N 54°11' E 005°04'9 8.8
2014-Aug-30 08:33N 54°03' E 004°57'8 7.9
2014-Aug-30 07:33N 53°55' E 004°56'10 9.5
2014-Aug-30 06:32N 53°45' E 004°56'13 8.8
2014-Aug-30 05:04N 53°33' E 004°48'5 8.6
2014-Aug-30 04:29N 53°29' E 004°45'8 8.2
2014-Aug-30 03:33N 53°22' E 004°40'24 7.9
2014-Aug-30 00:33N 53°01' E 004°22'8 7.6
2014-Aug-29 23:34N 52°54' E 004°16'8 7.5
2014-Aug-29 22:33N 52°48' E 004°09'8 7.7
2014-Aug-29 21:33N 52°42' E 004°01'8 8.2
2014-Aug-29 20:33N 52°36' E 003°52'11 8.8
2014-Aug-29 19:15N 52°27' E 003°39'6710.0
2014-Aug-29 12:33N 51°38' E 002°25'10 9.4
2014-Aug-29 11:30N 51°30' E 002°15'9 8.5
2014-Aug-29 10:24N 51°22' E 002°09'6 7.1
2014-Aug-29 09:33N 51°16' E 002°05'8 8.1
2014-Aug-29 08:33N 51°11' E 001°55'9 8.6
2014-Aug-29 07:33N 51°06' E 001°44'10 9.1
2014-Aug-29 06:30N 50°58' E 001°35'3910.0
2014-Aug-29 02:33N 50°29' E 000°53'1110.6
2014-Aug-29 01:33N 50°26' E 000°37'1110.9
2014-Aug-29 00:33N 50°23' E 000°21'24010.4
2014-Aug-28 01:33N 48°51' W 005°22'48 8.0
2014-Aug-27 19:33N 48°12' W 006°02'9 8.8
2014-Aug-27 18:33N 48°04' W 006°08'  
2014-Aug-25 06:08N 39°03' W 009°50'7 9.5
2014-Aug-25 05:25N 38°56' W 009°50'37 9.4
2014-Aug-25 01:30N 38°20' W 009°43'46 8.8
2014-Aug-24 20:15N 37°35' W 009°31'6 8.8
2014-Aug-24 19:33N 37°29' W 009°29'9 8.8
2014-Aug-24 18:32N 37°20' W 009°26'18 9.1
2014-Aug-24 16:33N 37°03' W 009°21'9 9.0
2014-Aug-24 15:33N 36°54' W 009°19'11 9.3
2014-Aug-24 14:24N 36°46' W 009°10'8 9.4
2014-Aug-24 13:33N 36°43' W 009°00'20 9.6
2014-Aug-24 11:30N 36°37' W 008°37'1910.0
2014-Aug-24 09:33N 36°31' W 008°14'  

Dump ship's entire track history